Time;durP1;ratioP1;P1;durP2;ratioP2;P2;SDS_P1;SDS_P2;PMS_P1;PMS_P2;Temp;Humidity;BMP_temperature;BMP_pressure;BME280_temperature;BME280_humidity;BME280_pressure;Samples;Min_cycle;Max_cycle;Signal;HPM_P1;HPM_P2
2021/04/15 00:01:48;;;;;;;8.33;5.80;;;0.20;99.90;;;;;;4993501;28;20767;-76
2021/04/15 00:04:14;;;;;;;7.50;6.30;;;0.30;99.90;;;;;;4993496;28;20410;-76
2021/04/15 00:06:40;;;;;;;7.83;5.93;;;0.20;99.90;;;;;;4993901;28;20422;-76
2021/04/15 00:09:16;;;;;;;7.70;5.83;;;0.20;99.90;;;;;;4993530;28;20274;-76
2021/04/15 00:11:43;;;;;;;10.50;6.53;;;0.20;99.90;;;;;;4992338;28;20551;-76
2021/04/15 00:14:11;;;;;;;11.43;6.13;;;0.20;99.90;;;;;;4993633;28;20414;-76
2021/04/15 00:16:36;;;;;;;7.17;5.97;;;0.30;99.90;;;;;;4993552;28;20423;-76
2021/04/15 00:19:06;;;;;;;10.00;7.57;;;0.30;99.90;;;;;;4993388;28;20483;-76
2021/04/15 00:21:32;;;;;;;9.57;7.20;;;0.30;99.90;;;;;;4992130;28;20183;-76
2021/04/15 00:23:58;;;;;;;9.87;6.30;;;0.20;99.90;;;;;;4993584;28;20775;-76
2021/04/15 00:26:25;;;;;;;8.60;6.23;;;0.10;99.90;;;;;;4993529;28;20178;-76
2021/04/15 00:28:52;;;;;;;9.80;6.43;;;0.00;99.90;;;;;;4993712;28;20203;-76
2021/04/15 00:31:18;;;;;;;8.90;5.80;;;-0.10;99.90;;;;;;4994377;28;20413;-76
2021/04/15 00:33:44;;;;;;;9.43;5.93;;;-0.10;99.90;;;;;;4995866;28;20419;-76
2021/04/15 00:36:11;;;;;;;10.00;6.33;;;-0.10;99.90;;;;;;4996690;28;20974;-76
2021/04/15 00:38:38;;;;;;;8.77;5.63;;;-0.10;99.90;;;;;;5028135;28;20207;-76
2021/04/15 00:41:06;;;;;;;9.50;6.63;;;-0.10;99.90;;;;;;4995642;28;20410;-76
2021/04/15 00:43:35;;;;;;;7.53;6.17;;;-0.10;99.90;;;;;;4996640;28;20434;-76
2021/04/15 00:46:43;;;;;;;9.23;5.53;;;-0.10;99.90;;;;;;4995201;28;21019;-76
2021/04/15 00:49:12;;;;;;;7.57;6.10;;;-0.10;99.90;;;;;;4995923;28;20497;-76
2021/04/15 00:51:42;;;;;;;7.37;6.13;;;0.00;99.90;;;;;;4996696;28;20402;-76
2021/04/15 00:54:08;;;;;;;9.80;6.27;;;-0.10;99.90;;;;;;4995166;28;20460;-76
2021/04/15 00:56:34;;;;;;;10.10;6.97;;;-0.10;99.90;;;;;;4996534;28;20415;-76
2021/04/15 00:59:01;;;;;;;11.57;7.57;;;0.00;99.90;;;;;;5027796;28;20243;-76
2021/04/15 01:01:27;;;;;;;7.93;6.53;;;0.10;99.90;;;;;;4996321;28;20440;-76
2021/04/15 01:03:53;;;;;;;8.27;6.50;;;0.10;99.90;;;;;;4996565;28;20434;-76
2021/04/15 01:06:20;;;;;;;9.70;6.50;;;0.10;99.90;;;;;;4996199;28;20909;-76
2021/04/15 01:08:46;;;;;;;9.87;6.73;;;0.10;99.90;;;;;;4995510;28;20211;-76
2021/04/15 01:11:44;;;;;;;8.37;6.37;;;0.10;99.90;;;;;;4995392;28;20431;-76
2021/04/15 01:14:41;;;;;;;9.37;6.33;;;0.00;99.90;;;;;;4994688;28;20415;-76
2021/04/15 01:17:31;;;;;;;8.27;6.20;;;0.10;99.90;;;;;;4993896;28;20528;-76
2021/04/15 01:19:59;;;;;;;7.20;6.10;;;0.10;99.90;;;;;;4996125;28;20482;-76
2021/04/15 01:22:40;;;;;;;8.50;6.67;;;0.10;99.90;;;;;;4994709;28;20470;-76
2021/04/15 01:25:31;;;;;;;6.40;5.77;;;0.10;99.90;;;;;;4994520;28;20473;-76
2021/04/15 01:28:09;;;;;;;8.33;6.63;;;0.10;99.90;;;;;;4996007;28;20423;-76
2021/04/15 01:30:42;;;;;;;12.87;6.90;;;0.10;99.90;;;;;;4994720;28;20426;-76
2021/04/15 01:33:16;;;;;;;9.37;6.30;;;0.10;99.90;;;;;;4996016;28;20509;-76
2021/04/15 01:35:55;;;;;;;9.07;6.30;;;0.20;99.90;;;;;;4994334;28;20815;-76
2021/04/15 01:38:32;;;;;;;8.70;6.57;;;0.10;99.90;;;;;;4994330;28;20530;-76
2021/04/15 01:41:18;;;;;;;9.77;6.50;;;0.20;99.90;;;;;;4995589;28;20391;-77
2021/04/15 01:44:11;;;;;;;7.77;6.07;;;0.20;99.90;;;;;;4995875;28;20391;-76
2021/04/15 01:46:39;;;;;;;9.17;5.77;;;0.20;99.90;;;;;;4993149;28;20430;-76
2021/04/15 01:49:08;;;;;;;9.70;6.77;;;0.20;99.90;;;;;;4995460;28;20431;-76
2021/04/15 01:51:54;;;;;;;11.20;6.23;;;0.20;99.90;;;;;;4995368;28;20414;-76
2021/04/15 01:54:35;;;;;;;10.07;6.70;;;0.20;99.90;;;;;;4993885;28;20411;-76
2021/04/15 01:57:05;;;;;;;8.77;6.47;;;0.20;99.90;;;;;;4993943;28;20473;-76
2021/04/15 01:59:54;;;;;;;9.77;6.73;;;0.20;99.90;;;;;;4994080;28;20423;-76
2021/04/15 02:02:24;;;;;;;6.93;5.97;;;0.20;99.90;;;;;;4985234;28;20430;-76
2021/04/15 02:05:07;;;;;;;8.93;6.10;;;0.20;99.90;;;;;;4994987;28;20433;-76
2021/04/15 02:07:36;;;;;;;8.13;6.00;;;0.30;99.90;;;;;;4993855;28;20948;-76
2021/04/15 02:10:06;;;;;;;7.27;6.17;;;0.30;99.90;;;;;;4993778;28;20424;-76
2021/04/15 02:12:36;;;;;;;8.70;6.83;;;0.20;99.90;;;;;;4995113;28;20485;-77
2021/04/15 02:15:07;;;;;;;7.47;5.87;;;0.20;99.90;;;;;;4994879;28;20897;-76
2021/04/15 02:17:39;;;;;;;12.40;6.03;;;0.30;99.90;;;;;;4993680;28;20501;-76
2021/04/15 02:20:09;;;;;;;11.83;6.10;;;0.30;99.90;;;;;;4994987;28;20419;-76
2021/04/15 02:23:22;;;;;;;9.70;6.30;;;0.20;99.90;;;;;;4994820;28;20403;-76
2021/04/15 02:26:16;;;;;;;7.60;6.50;;;0.20;99.90;;;;;;4988592;28;20415;-76
2021/04/15 02:28:56;;;;;;;10.33;6.87;;;0.20;99.90;;;;;;4994789;28;20478;-76
2021/04/15 02:31:27;;;;;;;8.47;6.67;;;0.20;99.90;;;;;;4995255;28;20398;-76
2021/04/15 02:34:07;;;;;;;10.70;6.50;;;0.10;99.90;;;;;;4993538;28;20461;-76
2021/04/15 02:36:46;;;;;;;7.83;6.80;;;0.00;99.90;;;;;;4995305;28;20410;-76
2021/04/15 02:39:29;;;;;;;6.87;6.17;;;0.00;99.90;;;;;;4993574;28;20411;-76
2021/04/15 02:41:56;;;;;;;13.20;6.90;;;0.00;99.90;;;;;;4994769;28;20394;-77
2021/04/15 02:44:28;;;;;;;7.37;6.23;;;0.00;99.90;;;;;;4994357;28;20971;-76
2021/04/15 02:47:03;;;;;;;11.30;6.43;;;-0.10;99.90;;;;;;4993285;28;20453;-77
2021/04/15 02:49:32;;;;;;;9.77;6.27;;;-0.10;99.90;;;;;;5025957;28;20905;-76
2021/04/15 02:52:11;;;;;;;9.83;7.00;;;-0.20;99.90;;;;;;4994526;28;20417;-76
2021/04/15 02:54:44;;;;;;;10.80;7.73;;;-0.20;99.90;;;;;;4993907;28;20401;-77
2021/04/15 02:57:18;;;;;;;9.00;7.03;;;-0.20;99.90;;;;;;4994167;28;20493;-76
2021/04/15 03:00:10;;;;;;;9.67;7.07;;;-0.30;99.90;;;;;;4994214;28;20396;-76
2021/04/15 03:02:48;;;;;;;10.27;7.97;;;-0.40;99.90;;;;;;4993009;28;20427;-76
2021/04/15 03:05:21;;;;;;;9.13;6.43;;;-0.40;99.90;;;;;;4994207;28;20403;-76
2021/04/15 03:07:48;;;;;;;8.77;7.40;;;-0.50;99.90;;;;;;4994657;28;20769;-76
2021/04/15 03:10:18;;;;;;;12.33;8.13;;;-0.50;99.90;;;;;;4993116;28;20517;-76
2021/04/15 03:12:48;;;;;;;11.47;7.77;;;-0.60;99.90;;;;;;4992870;28;20563;-76
2021/04/15 03:15:19;;;;;;;11.17;8.07;;;-0.60;99.90;;;;;;4994570;28;20395;-76
2021/04/15 03:17:50;;;;;;;9.57;7.73;;;-0.60;99.90;;;;;;4994005;28;20462;-76
2021/04/15 03:20:28;;;;;;;9.70;7.17;;;-0.70;99.90;;;;;;4993920;28;20391;-76
2021/04/15 03:22:59;;;;;;;11.93;7.43;;;-0.70;99.90;;;;;;4993077;28;20897;-76
2021/04/15 03:25:26;;;;;;;12.63;8.47;;;-0.70;99.90;;;;;;4994085;28;20430;-76
2021/04/15 03:28:13;;;;;;;11.20;8.70;;;-0.70;99.90;;;;;;4993912;28;20461;-76
2021/04/15 03:31:03;;;;;;;11.50;9.00;;;-0.80;99.90;;;;;;4992975;28;20426;-76
2021/04/15 03:33:41;;;;;;;13.00;8.53;;;-0.80;99.90;;;;;;4992830;28;20515;-76
2021/04/15 03:36:25;;;;;;;10.40;8.10;;;-0.80;99.90;;;;;;4993992;28;20397;-76
2021/04/15 03:38:56;;;;;;;13.70;8.27;;;-0.80;99.90;;;;;;4992741;28;20469;-76
2021/04/15 03:41:26;;;;;;;14.27;8.37;;;-0.80;99.90;;;;;;5002901;28;20442;-76
2021/04/15 03:44:04;;;;;;;11.07;8.60;;;-0.80;99.90;;;;;;5004848;28;20431;-76
2021/04/15 03:46:38;;;;;;;13.40;8.70;;;-0.90;99.90;;;;;;4995714;28;20409;-77
2021/04/15 03:49:33;;;;;;;9.87;7.80;;;-0.90;99.90;;;;;;4997473;28;20462;-78
2021/04/15 03:52:21;;;;;;;11.93;8.43;;;-0.90;99.90;;;;;;4995328;28;20419;-78
2021/04/15 03:55:08;;;;;;;14.80;8.90;;;-1.00;99.90;;;;;;4996140;28;20782;-78
2021/04/15 03:57:34;;;;;;;10.87;8.07;;;-1.00;99.90;;;;;;4996640;28;20871;-78
2021/04/15 04:00:03;;;;;;;13.27;8.97;;;-1.00;99.90;;;;;;4993941;28;20419;-78
2021/04/15 04:02:39;;;;;;;14.60;9.03;;;-1.00;99.90;;;;;;4997320;28;20509;-78
2021/04/15 04:05:23;;;;;;;11.53;8.00;;;-1.10;99.90;;;;;;4994734;28;20763;-78
2021/04/15 04:07:57;;;;;;;10.67;8.40;;;-1.20;99.90;;;;;;4996562;28;21033;-77
2021/04/15 04:10:44;;;;;;;13.60;9.43;;;-1.30;99.90;;;;;;4998034;28;20403;-77
2021/04/15 04:13:33;;;;;;;12.10;8.73;;;-1.30;99.90;;;;;;4998460;28;20446;-77
2021/04/15 04:16:19;;;;;;;14.03;8.70;;;-1.20;99.90;;;;;;4996150;28;20505;-77
2021/04/15 04:19:20;;;;;;;12.90;8.57;;;-1.30;99.90;;;;;;4997898;28;20880;-77
2021/04/15 04:21:54;;;;;;;10.77;8.83;;;-1.30;99.90;;;;;;4996815;28;20971;-77
2021/04/15 04:24:58;;;;;;;10.17;8.50;;;-1.30;99.90;;;;;;4997454;28;20935;-77
2021/04/15 04:27:39;;;;;;;13.20;8.77;;;-1.30;99.90;;;;;;4993846;28;20515;-77
2021/04/15 04:30:12;;;;;;;11.80;8.93;;;-1.30;99.90;;;;;;4995872;28;20410;-76
2021/04/15 04:32:39;;;;;;;12.57;9.20;;;-1.30;99.90;;;;;;4997313;28;20391;-76
2021/04/15 04:35:10;;;;;;;12.67;9.53;;;-1.40;99.90;;;;;;4996993;28;20506;-76
2021/04/15 04:37:46;;;;;;;16.13;9.07;;;-1.30;99.90;;;;;;4995486;28;20544;-76
2021/04/15 04:40:17;;;;;;;15.67;9.60;;;-1.30;99.90;;;;;;4997111;28;20383;-77
2021/04/15 04:42:49;;;;;;;13.40;9.20;;;-1.30;99.90;;;;;;4995332;28;20407;-77
2021/04/15 04:45:17;;;;;;;19.30;9.47;;;-1.30;99.90;;;;;;4996544;28;20399;-76
2021/04/15 04:48:07;;;;;;;14.47;9.67;;;-1.30;99.90;;;;;;4996638;28;20450;-77
2021/04/15 04:50:40;;;;;;;12.43;9.27;;;-1.40;99.90;;;;;;4996971;28;20402;-77
2021/04/15 04:53:11;;;;;;;15.07;9.67;;;-1.40;99.90;;;;;;4996644;28;20486;-77
2021/04/15 04:55:49;;;;;;;12.97;9.70;;;-1.40;99.90;;;;;;4995234;28;20924;-77
2021/04/15 04:58:18;;;;;;;14.00;10.10;;;-1.40;99.90;;;;;;4995292;28;20501;-77
2021/04/15 05:00:51;;;;;;;12.43;9.33;;;-1.40;99.90;;;;;;4995410;28;20411;-77
2021/04/15 05:03:25;;;;;;;15.03;10.07;;;-1.40;99.90;;;;;;4995288;28;20406;-77
2021/04/15 05:06:03;;;;;;;17.30;9.87;;;-1.40;99.90;;;;;;4996461;28;20501;-77
2021/04/15 05:08:42;;;;;;;14.40;9.73;;;-1.30;99.90;;;;;;4995031;28;20440;-77
2021/04/15 05:11:07;;;;;;;12.30;9.53;;;-1.20;99.90;;;;;;4995164;28;20422;-77
2021/04/15 05:13:34;;;;;;;15.87;10.20;;;-1.10;99.90;;;;;;4994991;28;20426;-77
2021/04/15 05:16:03;;;;;;;14.87;9.40;;;-1.10;99.90;;;;;;4995922;28;20179;-77
2021/04/15 05:18:30;;;;;;;16.20;9.43;;;-1.10;99.90;;;;;;4996088;28;20607;-77
2021/04/15 05:21:08;;;;;;;14.23;9.93;;;-0.90;99.90;;;;;;4995244;28;20413;-77
2021/04/15 05:23:43;;;;;;;13.83;9.77;;;-0.90;99.90;;;;;;4995010;28;20415;-77
2021/04/15 05:26:27;;;;;;;16.33;11.00;;;-0.80;99.90;;;;;;4995184;28;20963;-77
2021/04/15 05:28:56;;;;;;;13.07;9.67;;;-0.70;99.90;;;;;;4996251;28;20474;-77
2021/04/15 05:31:25;;;;;;;14.53;9.00;;;-0.70;99.90;;;;;;4995059;28;20437;-77
2021/04/15 05:33:52;;;;;;;11.17;8.17;;;-0.60;99.90;;;;;;4996644;28;20472;-77
2021/04/15 05:36:30;;;;;;;14.33;8.60;;;-0.50;99.90;;;;;;5026314;28;20497;-77
2021/04/15 05:38:58;;;;;;;10.93;8.77;;;-0.40;99.90;;;;;;4994918;28;20498;-77
2021/04/15 05:41:47;;;;;;;10.50;7.63;;;-0.40;99.90;;;;;;4997569;28;20446;-77
2021/04/15 05:44:23;;;;;;;11.13;7.73;;;-0.30;99.90;;;;;;4997331;28;20496;-78
2021/04/15 05:46:54;;;;;;;9.57;6.77;;;-0.20;99.90;;;;;;5003798;28;20418;-78
2021/04/15 05:49:24;;;;;;;13.40;7.13;;;-0.20;99.90;;;;;;5006693;28;20391;-77
2021/04/15 05:52:21;;;;;;;12.43;6.63;;;-0.20;99.90;;;;;;4996934;28;20394;-77
2021/04/15 05:54:48;;;;;;;10.53;6.80;;;-0.20;99.90;;;;;;4996549;28;20402;-78
2021/04/15 05:57:17;;;;;;;10.17;6.00;;;-0.20;99.90;;;;;;4995907;28;20470;-77
2021/04/15 06:00:11;;;;;;;10.33;7.00;;;-0.20;99.90;;;;;;4995631;28;20450;-78
2021/04/15 06:03:00;;;;;;;9.77;6.73;;;-0.10;99.90;;;;;;4997157;28;20783;-78
2021/04/15 06:05:54;;;;;;;9.27;6.43;;;-0.10;99.90;;;;;;5000116;28;20417;-78
2021/04/15 06:08:20;;;;;;;9.73;6.77;;;-0.10;99.90;;;;;;5001590;28;20434;-78
2021/04/15 06:10:48;;;;;;;8.07;6.40;;;-0.10;99.90;;;;;;4997507;28;20420;-78
2021/04/15 06:13:22;;;;;;;9.10;6.33;;;-0.10;99.90;;;;;;4997909;28;20453;-77
2021/04/15 06:15:51;;;;;;;7.00;5.93;;;-0.10;99.90;;;;;;4998328;28;20430;-78
2021/04/15 06:18:43;;;;;;;7.63;6.00;;;0.00;99.90;;;;;;5000626;28;20454;-78
2021/04/15 06:21:19;;;;;;;7.47;5.80;;;0.00;99.90;;;;;;4999490;28;20479;-78
2021/04/15 06:23:59;;;;;;;8.97;6.43;;;0.10;99.90;;;;;;4995196;28;20775;-77
2021/04/15 06:26:43;;;;;;;9.67;5.90;;;0.20;99.90;;;;;;4996590;28;20422;-78
2021/04/15 06:29:22;;;;;;;9.07;5.97;;;0.30;99.90;;;;;;4997617;28;20944;-78
2021/04/15 06:31:51;;;;;;;11.07;5.40;;;0.40;99.90;;;;;;4999606;28;20399;-79
2021/04/15 06:34:18;;;;;;;8.43;5.90;;;0.60;99.90;;;;;;4999019;28;20450;-79
2021/04/15 06:37:12;;;;;;;7.67;5.80;;;0.70;99.90;;;;;;4998913;28;20404;-79
2021/04/15 06:39:58;;;;;;;9.27;5.67;;;0.90;99.90;;;;;;4996841;28;20427;-78
2021/04/15 06:43:13;;;;;;;7.60;5.17;;;0.90;99.90;;;;;;4997420;28;20815;-78
2021/04/15 06:46:08;;;;;;;7.57;5.20;;;0.90;99.90;;;;;;4985889;28;20411;-79
2021/04/15 06:48:42;;;;;;;5.70;4.47;;;0.90;99.90;;;;;;4993813;28;20956;-78
2021/04/15 06:51:29;;;;;;;11.60;5.03;;;1.10;99.90;;;;;;4996199;28;20414;-78
2021/04/15 06:53:58;;;;;;;8.20;5.20;;;1.30;99.90;;;;;;4995442;28;20391;-78
2021/04/15 06:57:01;;;;;;;8.07;5.47;;;1.60;99.90;;;;;;4993988;28;20477;-78
2021/04/15 06:59:51;;;;;;;5.10;4.60;;;1.60;99.90;;;;;;4994280;28;20469;-78
2021/04/15 07:02:53;;;;;;;7.10;5.33;;;1.50;99.90;;;;;;4994055;28;20422;-78
2021/04/15 07:05:29;;;;;;;8.57;4.50;;;1.40;99.90;;;;;;4995318;28;20413;-78
2021/04/15 07:08:11;;;;;;;6.03;5.03;;;1.40;99.90;;;;;;4994205;28;20442;-78
2021/04/15 07:11:08;;;;;;;6.33;5.03;;;1.50;99.90;;;;;;4995717;28;20399;-78
2021/04/15 07:13:49;;;;;;;5.67;5.03;;;1.50;99.90;;;;;;4995632;28;20429;-78
2021/04/15 07:16:42;;;;;;;6.00;4.90;;;1.50;99.90;;;;;;4995293;28;20399;-78
2021/04/15 07:19:14;;;;;;;7.00;5.07;;;1.60;99.90;;;;;;4995147;28;20556;-78
2021/04/15 07:21:48;;;;;;;7.40;5.27;;;1.70;99.90;;;;;;4994722;28;20426;-78
2021/04/15 07:24:35;;;;;;;11.03;5.87;;;1.80;99.90;;;;;;4995855;28;20417;-78
2021/04/15 07:27:16;;;;;;;6.60;4.33;;;1.80;99.90;;;;;;4994302;28;20415;-78
2021/04/15 07:29:48;;;;;;;6.57;4.77;;;1.90;99.90;;;;;;4994573;28;20418;-78
2021/04/15 07:32:52;;;;;;;5.97;4.63;;;1.90;99.90;;;;;;4995804;28;20464;-78
2021/04/15 07:35:36;;;;;;;6.50;4.70;;;2.00;99.90;;;;;;4994332;28;20414;-78
2021/04/15 07:38:20;;;;;;;7.80;5.70;;;2.20;99.90;;;;;;4995422;28;20537;-78
2021/04/15 07:41:05;;;;;;;7.27;4.70;;;2.30;99.90;;;;;;4997792;28;20422;-78
2021/04/15 07:43:55;;;;;;;7.33;5.40;;;2.30;99.90;;;;;;4999940;28;20399;-78
2021/04/15 07:46:39;;;;;;;7.03;4.90;;;2.20;99.90;;;;;;4999585;28;20402;-78
2021/04/15 07:49:43;;;;;;;6.87;5.23;;;2.20;99.90;;;;;;4997555;28;20825;-78
2021/04/15 07:52:37;;;;;;;8.30;5.07;;;2.30;99.90;;;;;;4999871;28;20888;-78
2021/04/15 07:55:27;;;;;;;6.07;4.73;;;2.20;99.90;;;;;;4998125;28;20484;-78
2021/04/15 07:58:01;;;;;;;5.00;4.37;;;2.40;99.90;;;;;;4999259;28;20589;-78
2021/04/15 08:01:01;;;;;;;9.60;5.17;;;2.70;99.90;;;;;;4998463;28;20421;-78
2021/04/15 08:04:01;;;;;;;7.60;5.23;;;3.60;99.90;;;;;;4998614;28;20419;-78
2021/04/15 08:06:50;;;;;;;6.63;4.70;;;4.60;99.90;;;;;;4999164;28;20426;-78
2021/04/15 08:09:32;;;;;;;8.60;4.70;;;5.70;99.90;;;;;;5000213;28;20479;-78
2021/04/15 08:12:28;;;;;;;6.97;4.13;;;5.80;99.90;;;;;;4999961;28;20410;-78
2021/04/15 08:15:06;;;;;;;6.37;4.23;;;5.40;99.90;;;;;;5000209;28;20183;-78
2021/04/15 08:17:36;;;;;;;5.17;3.80;;;5.00;99.90;;;;;;4999583;28;20558;-78
2021/04/15 08:20:07;;;;;;;7.53;5.30;;;4.70;99.90;;;;;;4999456;28;20813;-78
2021/04/15 08:22:51;;;;;;;8.10;3.93;;;4.50;99.90;;;;;;5000233;28;20230;-79
2021/04/15 08:25:35;;;;;;;5.47;4.17;;;4.30;99.90;;;;;;5003987;28;20454;-79
2021/04/15 08:28:33;;;;;;;4.67;4.17;;;4.10;99.90;;;;;;5000284;28;20199;-79
2021/04/15 08:31:11;;;;;;;5.53;4.93;;;4.00;99.90;;;;;;5000502;28;20200;-79
2021/04/15 08:33:48;;;;;;;7.47;5.00;;;4.10;99.90;;;;;;5001682;28;20239;-79
2021/04/15 08:36:32;;;;;;;4.97;4.13;;;4.50;99.90;;;;;;5000293;28;20410;-79
2021/04/15 08:39:14;;;;;;;5.47;4.43;;;4.90;99.90;;;;;;5002469;28;20286;-79
2021/04/15 08:42:12;;;;;;;6.13;4.37;;;5.20;99.90;;;;;;4998246;28;20393;-77
2021/04/15 08:45:04;;;;;;;5.80;4.93;;;6.40;99.90;;;;;;4995664;28;20191;-77
2021/04/15 08:47:49;;;;;;;7.37;5.07;;;6.70;99.90;;;;;;4998571;28;20207;-79
2021/04/15 08:50:22;;;;;;;6.60;4.73;;;6.50;99.90;;;;;;4996865;28;20203;-77
2021/04/15 08:53:15;;;;;;;5.73;4.50;;;7.10;99.90;;;;;;4995446;28;20588;-77
2021/04/15 08:55:41;;;;;;;7.20;4.20;;;8.00;99.90;;;;;;4997434;28;20654;-77
2021/04/15 08:58:30;;;;;;;3.83;3.43;;;8.30;99.90;;;;;;4997813;28;20307;-77
2021/04/15 09:01:04;;;;;;;6.40;4.10;;;8.70;99.90;;;;;;5001956;28;20235;-77
2021/04/15 09:03:42;;;;;;;6.17;3.83;;;8.90;99.90;;;;;;5000630;28;20176;-77
2021/04/15 09:06:24;;;;;;;6.27;3.60;;;8.70;99.00;;;;;;4999737;28;20175;-77
2021/04/15 09:09:11;;;;;;;5.10;3.70;;;8.60;97.50;;;;;;5005341;28;20206;-77
2021/04/15 09:11:48;;;;;;;4.67;3.50;;;8.20;99.40;;;;;;5010116;28;20199;-77
2021/04/15 09:14:27;;;;;;;4.93;3.70;;;8.30;97.40;;;;;;4998086;28;20189;-77
2021/04/15 09:17:43;;;;;;;5.23;3.23;;;8.50;99.90;;;;;;4997590;28;20174;-77
2021/04/15 09:20:38;;;;;;;4.33;3.10;;;8.80;98.30;;;;;;4986223;28;20662;-77
2021/04/15 09:23:32;;;;;;;5.27;3.57;;;9.10;95.60;;;;;;4992468;28;20188;-77
2021/04/15 09:26:25;;;;;;;5.43;3.20;;;8.50;96.40;;;;;;4995941;28;20694;-77
2021/04/15 09:29:17;;;;;;;5.40;3.60;;;8.40;95.50;;;;;;4996796;28;20253;-77
2021/04/15 09:31:56;;;;;;;4.80;2.73;;;8.40;94.90;;;;;;4995195;28;20250;-78
2021/04/15 09:34:43;;;;;;;5.43;2.73;;;8.40;93.80;;;;;;4996582;28;20175;-77
2021/04/15 09:37:11;;;;;;;5.07;3.00;;;8.60;92.60;;;;;;4996615;28;20199;-77
2021/04/15 09:39:50;;;;;;;5.47;2.63;;;8.20;91.30;;;;;;4996877;28;20175;-77
2021/04/15 09:42:41;;;;;;;3.63;2.53;;;8.70;94.50;;;;;;4996729;28;20642;-77
2021/04/15 09:45:22;;;;;;;3.60;2.70;;;9.10;91.80;;;;;;4996979;28;20172;-77
2021/04/15 09:48:13;;;;;;;6.07;2.57;;;9.70;88.20;;;;;;4997347;28;20209;-77
2021/04/15 09:51:02;;;;;;;5.03;2.80;;;9.60;91.20;;;;;;4995236;28;20198;-78
2021/04/15 09:53:54;;;;;;;3.50;2.23;;;9.90;89.40;;;;;;4996452;28;20176;-78
2021/04/15 09:56:44;;;;;;;5.77;2.90;;;9.30;83.90;;;;;;4995734;28;20190;-77
2021/04/15 09:59:58;;;;;;;3.20;2.90;;;8.30;89.80;;;;;;4996142;28;20211;-77
2021/04/15 10:02:52;;;;;;;3.20;2.90;;;8.80;90.30;;;;;;4995950;28;20266;-77
2021/04/15 10:05:29;;;;;;;5.00;3.20;;;9.30;91.10;;;;;;4997228;28;20171;-78
2021/04/15 10:07:59;;;;;;;5.70;2.97;;;9.50;90.80;;;;;;4999342;28;20260;-77
2021/04/15 10:10:42;;;;;;;4.30;3.03;;;9.50;86.80;;;;;;4999759;28;20232;-78
2021/04/15 10:13:26;;;;;;;14.50;3.30;;;9.20;90.30;;;;;;4997090;28;20205;-77
2021/04/15 10:16:07;;;;;;;3.87;2.80;;;8.90;86.80;;;;;;4997268;28;20180;-77
2021/04/15 10:18:47;;;;;;;4.17;2.97;;;8.20;86.60;;;;;;5028609;28;20278;-77
2021/04/15 10:21:25;;;;;;;5.37;2.43;;;8.60;91.90;;;;;;4995996;28;20512;-79
2021/04/15 10:24:12;;;;;;;3.30;2.80;;;8.40;84.10;;;;;;5024996;28;20183;-77
2021/04/15 10:26:56;;;;;;;5.40;2.67;;;7.80;86.20;;;;;;4984064;28;20175;-78
2021/04/15 10:29:28;;;;;;;4.70;2.83;;;8.10;86.50;;;;;;4982557;28;20183;-78
2021/04/15 10:32:32;;;;;;;5.77;3.13;;;8.60;90.50;;;;;;4990388;28;20669;-78
2021/04/15 10:35:31;;;;;;;5.10;2.80;;;8.70;88.50;;;;;;4987912;28;20262;-78
2021/04/15 10:38:06;;;;;;;4.60;2.53;;;7.80;86.10;;;;;;4979992;28;20262;-78
2021/04/15 10:40:50;;;;;;;7.83;2.97;;;7.40;89.60;;;;;;4981989;28;20282;-78
2021/04/15 10:43:46;;;;;;;5.60;3.23;;;8.10;91.00;;;;;;4994763;28;20210;-77
2021/04/15 10:46:12;;;;;;;5.13;3.13;;;8.70;91.00;;;;;;4994890;28;20179;-78
2021/04/15 10:48:56;;;;;;;3.97;2.93;;;8.30;84.30;;;;;;4994823;28;20673;-78
2021/04/15 10:51:42;;;;;;;3.67;3.03;;;7.80;86.90;;;;;;4993269;28;20638;-77
2021/04/15 10:54:29;;;;;;;4.23;2.80;;;7.30;84.50;;;;;;4993458;28;20175;-79
2021/04/15 10:57:01;;;;;;;9.80;5.17;;;6.60;87.00;;;;;;4994547;28;20195;-77
2021/04/15 10:59:38;;;;;;;13.87;3.63;;;6.40;86.60;;;;;;4994520;28;20171;-77
2021/04/15 11:02:28;;;;;;;5.03;3.10;;;7.30;91.70;;;;;;4994445;28;20199;-77
2021/04/15 11:04:59;;;;;;;3.60;2.57;;;8.60;85.70;;;;;;4992955;28;20266;-77
2021/04/15 11:07:27;;;;;;;3.33;3.00;;;9.50;81.30;;;;;;4993095;28;20203;-78
2021/04/15 11:09:57;;;;;;;7.23;2.93;;;10.50;82.60;;;;;;4994589;28;20195;-77
2021/04/15 11:12:31;;;;;;;7.40;3.23;;;11.00;80.10;;;;;;4993443;28;20179;-77
2021/04/15 11:14:59;;;;;;;3.60;2.30;;;11.40;80.40;;;;;;5028136;28;20188;-78
2021/04/15 11:17:42;;;;;;;2.70;2.07;;;11.50;70.40;;;;;;4996802;28;20214;-78
2021/04/15 11:20:22;;;;;;;3.43;2.50;;;11.60;74.80;;;;;;4999038;28;20152;-78
2021/04/15 11:23:12;;;;;;;2.80;2.50;;;11.50;63.20;;;;;;4999157;28;20176;-78
2021/04/15 11:25:41;;;;;;;2.70;2.40;;;11.20;65.10;;;;;;4995797;28;20615;-78
2021/04/15 11:28:19;;;;;;;2.30;1.93;;;11.40;69.00;;;;;;4994649;28;20695;-77
2021/04/15 11:30:51;;;;;;;2.60;2.40;;;11.70;65.00;;;;;;4994239;28;20177;-78
2021/04/15 11:33:32;;;;;;;2.70;2.50;;;12.10;65.20;;;;;;4994461;28;20183;-78
2021/04/15 11:36:13;;;;;;;3.73;2.67;;;12.60;60.20;;;;;;4995380;28;20714;-78
2021/04/15 11:38:41;;;;;;;3.57;2.80;;;12.60;58.60;;;;;;4996397;28;20268;-78
2021/04/15 11:41:23;;;;;;;5.13;3.20;;;11.70;60.40;;;;;;4996800;28;20178;-78
2021/04/15 11:44:00;;;;;;;3.53;2.93;;;10.40;64.40;;;;;;4995806;28;20182;-77
2021/04/15 11:46:49;;;;;;;3.47;2.83;;;9.50;67.60;;;;;;4995580;28;20196;-77
2021/04/15 11:49:43;;;;;;;3.90;3.10;;;8.80;68.50;;;;;;4994650;28;20196;-77
2021/04/15 11:52:12;;;;;;;4.50;2.80;;;8.60;71.60;;;;;;4994608;28;20216;-77
2021/04/15 11:54:43;;;;;;;4.87;3.30;;;9.90;77.80;;;;;;4995856;28;20180;-77
2021/04/15 11:57:36;;;;;;;6.77;3.10;;;10.80;68.30;;;;;;4995039;28;20567;-77
2021/04/15 12:00:02;;;;;;;3.20;2.70;;;10.10;64.70;;;;;;4995815;28;20152;-77
2021/04/15 12:02:49;;;;;;;4.63;2.90;;;10.90;71.30;;;;;;4995371;28;20184;-77
2021/04/15 12:05:37;;;;;;;2.93;2.40;;;10.50;64.60;;;;;;4996880;28;20165;-77
2021/04/15 12:08:34;;;;;;;2.90;2.60;;;11.30;65.50;;;;;;4995035;28;20200;-74
2021/04/15 12:11:13;;;;;;;4.93;2.20;;;11.50;62.70;;;;;;4996068;28;20219;-77
2021/04/15 12:13:41;;;;;;;3.60;2.40;;;11.70;61.40;;;;;;4997833;28;20673;-77
2021/04/15 12:16:13;;;;;;;3.23;2.50;;;12.40;58.60;;;;;;4995547;28;20723;-78
2021/04/15 12:18:50;;;;;;;3.57;2.10;;;11.50;54.10;;;;;;4994816;28;20288;-77
2021/04/15 12:21:27;;;;;;;2.03;1.80;;;10.90;55.90;;;;;;4994603;28;20165;-77
2021/04/15 12:24:19;;;;;;;2.57;2.30;;;11.40;57.30;;;;;;4994993;28;20164;-77
2021/04/15 12:27:08;;;;;;;3.70;2.30;;;10.90;55.70;;;;;;4995976;28;20172;-77
2021/04/15 12:29:41;;;;;;;6.97;2.53;;;10.30;57.20;;;;;;4997281;28;20627;-76
2021/04/15 12:32:41;;;;;;;4.77;2.30;;;11.30;61.40;;;;;;4998150;28;20208;-77
2021/04/15 12:35:30;;;;;;;3.73;2.40;;;12.60;58.90;;;;;;4997834;28;20258;-77
2021/04/15 12:38:08;;;;;;;3.10;2.40;;;11.10;56.00;;;;;;4994100;28;20212;-77
2021/04/15 12:40:40;;;;;;;3.73;3.00;;;9.70;56.80;;;;;;4996851;28;20231;-77
2021/04/15 12:43:27;;;;;;;3.77;2.13;;;10.20;60.90;;;;;;4996976;28;20168;-77
2021/04/15 12:46:26;;;;;;;3.90;2.20;;;10.10;54.50;;;;;;4996654;28;20307;-77
2021/04/15 12:48:57;;;;;;;3.13;2.30;;;8.10;56.50;;;;;;4985273;28;20234;-76
2021/04/15 12:51:29;;;;;;;3.10;2.33;;;7.60;59.70;;;;;;4995450;28;20164;-76
2021/04/15 12:53:57;;;;;;;2.60;2.40;;;7.30;63.10;;;;;;4996930;28;20175;-76
2021/04/15 12:56:39;;;;;;;4.53;2.40;;;7.20;60.90;;;;;;4996319;28;20176;-76
2021/04/15 12:59:06;;;;;;;3.17;2.83;;;7.40;62.60;;;;;;4996746;28;20187;-78
2021/04/15 13:01:34;;;;;;;3.60;2.77;;;7.30;63.60;;;;;;4995709;28;20558;-77
2021/04/15 13:04:35;;;;;;;4.03;3.07;;;7.00;69.50;;;;;;4995616;28;20172;-76
2021/04/15 13:07:00;;;;;;;5.10;4.10;;;6.90;68.20;;;;;;4974118;28;20666;-77
2021/04/15 13:09:39;;;;;;;6.27;3.30;;;8.80;70.50;;;;;;4996257;28;20202;-76
2021/04/15 13:12:34;;;;;;;6.60;3.33;;;8.80;63.10;;;;;;4996520;28;20171;-76
2021/04/15 13:15:04;;;;;;;8.60;3.53;;;8.40;63.70;;;;;;4993863;28;20741;-76
2021/04/15 13:17:35;;;;;;;6.93;3.50;;;7.90;65.90;;;;;;4994973;28;20750;-76
2021/04/15 13:20:13;;;;;;;9.13;3.37;;;7.80;65.40;;;;;;4996499;28;20176;-76
2021/04/15 13:22:41;;;;;;;8.00;3.50;;;8.00;65.90;;;;;;4996604;28;20159;-76
2021/04/15 13:25:12;;;;;;;4.07;2.97;;;9.00;65.60;;;;;;4994825;28;20207;-76
2021/04/15 13:27:45;;;;;;;4.83;3.50;;;10.20;65.20;;;;;;4995989;28;20689;-76
2021/04/15 13:30:37;;;;;;;6.57;2.90;;;10.20;60.20;;;;;;4996517;28;20203;-77
2021/04/15 13:33:23;;;;;;;6.63;2.90;;;11.50;61.70;;;;;;4994727;28;20168;-77
2021/04/15 13:35:56;;;;;;;3.70;3.23;;;12.90;56.80;;;;;;4996053;28;20163;-77
2021/04/15 13:38:28;;;;;;;3.73;2.83;;;13.60;58.30;;;;;;4993729;28;20203;-77
2021/04/15 13:41:01;;;;;;;2.83;2.43;;;14.20;52.70;;;;;;4996703;28;20168;-77
2021/04/15 13:43:35;;;;;;;4.23;2.80;;;14.40;52.10;;;;;;4996572;28;20528;-77
2021/04/15 13:48:55;;;;;;;4.03;2.80;;;10.40;55.90;;;;;;4995974;28;20207;-77
2021/04/15 13:51:22;;;;;;;4.47;3.00;;;9.10;58.20;;;;;;4995944;28;20540;-77
2021/04/15 13:54:01;;;;;;;4.60;2.87;;;9.90;62.10;;;;;;4995976;28;20168;-77
2021/04/15 13:56:53;;;;;;;3.60;2.80;;;11.60;56.90;;;;;;4994418;28;20218;-77